createdAt,value
2019-06-20T00:02:19.675Z,24.00
2019-06-20T00:04:49.073Z,24.00
2019-06-20T00:07:16.802Z,24.00
2019-06-20T00:09:44.544Z,23.90
2019-06-20T00:12:12.174Z,24.00
2019-06-20T00:14:41.747Z,24.00
2019-06-20T00:17:09.465Z,24.00
2019-06-20T00:19:36.997Z,24.00
2019-06-20T00:22:04.652Z,23.90
2019-06-20T00:24:32.277Z,23.80
2019-06-20T00:27:02.755Z,23.80
2019-06-20T00:29:30.395Z,23.80
2019-06-20T00:31:58.012Z,23.70
2019-06-20T00:34:25.647Z,23.60
2019-06-20T00:36:53.237Z,23.60
2019-06-20T00:39:20.878Z,23.60
2019-06-20T00:41:48.503Z,23.60
2019-06-20T00:44:16.161Z,23.70
2019-06-20T00:46:43.765Z,23.70
2019-06-20T00:49:11.376Z,23.70
2019-06-20T00:51:39.107Z,23.70
2019-06-20T00:54:06.708Z,23.70
2019-06-20T00:56:34.334Z,23.80
2019-06-20T00:59:02.009Z,23.80
2019-06-20T01:01:29.749Z,23.80
2019-06-20T01:03:57.339Z,23.80
2019-06-20T01:06:25.079Z,23.80
2019-06-20T01:08:52.798Z,23.80
2019-06-20T01:11:22.205Z,23.80
2019-06-20T01:13:52.897Z,23.80
2019-06-20T01:16:20.822Z,23.80
2019-06-20T01:18:50.243Z,23.80
2019-06-20T01:21:19.183Z,23.80
2019-06-20T01:23:46.762Z,23.80
2019-06-20T01:26:14.351Z,23.80
2019-06-20T01:28:41.969Z,23.80
2019-06-20T01:31:09.579Z,23.80
2019-06-20T01:33:37.321Z,23.80
2019-06-20T01:36:04.908Z,23.80
2019-06-20T01:38:32.643Z,23.80
2019-06-20T01:41:05.852Z,23.80
2019-06-20T01:43:31.141Z,23.80
2019-06-20T01:45:58.747Z,23.70
2019-06-20T01:50:57.499Z,23.80
2019-06-20T01:53:25.204Z,23.70
2019-06-20T01:55:52.847Z,23.70
2019-06-20T01:58:20.445Z,23.70
2019-06-20T02:00:48.873Z,23.70
2019-06-20T02:03:16.989Z,23.70
2019-06-20T02:05:44.995Z,23.70
2019-06-20T02:08:12.804Z,23.70
2019-06-20T02:10:40.415Z,23.60
2019-06-20T02:13:08.006Z,23.60
2019-06-20T02:15:35.618Z,23.60
2019-06-20T02:18:03.635Z,23.60
2019-06-20T02:20:35.238Z,23.60
2019-06-20T02:23:02.997Z,23.50
2019-06-20T02:25:30.675Z,23.60
2019-06-20T02:27:58.263Z,23.50
2019-06-20T02:30:25.957Z,23.50
2019-06-20T02:32:53.582Z,23.50
2019-06-20T02:35:21.195Z,23.60
2019-06-20T02:37:48.793Z,23.60
2019-06-20T02:40:16.496Z,23.60
2019-06-20T02:42:44.104Z,23.50
2019-06-20T02:45:12.229Z,23.60
2019-06-20T02:47:39.838Z,23.60
2019-06-20T02:50:08.231Z,23.50
2019-06-20T02:52:35.853Z,23.50
2019-06-20T02:55:04.293Z,23.50
2019-06-20T02:57:31.957Z,23.50
2019-06-20T02:59:59.583Z,23.40
2019-06-20T03:02:27.221Z,23.40
2019-06-20T03:04:54.835Z,23.30
2019-06-20T03:07:22.415Z,23.30
2019-06-20T03:09:50.025Z,23.20
2019-06-20T03:12:17.691Z,23.20
2019-06-20T03:14:45.955Z,23.10
2019-06-20T03:17:13.592Z,23.10
2019-06-20T03:19:41.203Z,23.10
2019-06-20T03:22:08.803Z,23.00
2019-06-20T03:24:36.403Z,23.00
2019-06-20T03:27:04.130Z,23.00
2019-06-20T03:29:31.714Z,23.00
2019-06-20T03:31:59.321Z,22.90
2019-06-20T03:34:26.971Z,22.90
2019-06-20T03:36:54.574Z,22.90
2019-06-20T03:39:22.209Z,22.90
2019-06-20T03:41:49.827Z,22.90
2019-06-20T03:44:17.445Z,22.90
2019-06-20T03:46:45.026Z,22.90
2019-06-20T03:49:12.631Z,22.90
2019-06-20T03:51:40.228Z,22.90
2019-06-20T03:54:07.847Z,22.90
2019-06-20T03:56:36.532Z,23.00
2019-06-20T03:59:04.187Z,22.90
2019-06-20T04:01:31.797Z,23.00
2019-06-20T04:04:00.478Z,23.00
2019-06-20T04:06:28.082Z,23.00
2019-06-20T04:08:55.685Z,23.00
2019-06-20T04:11:23.295Z,23.00
2019-06-20T04:13:50.939Z,23.00
2019-06-20T04:16:18.573Z,23.00
2019-06-20T04:18:46.145Z,23.00
2019-06-20T04:21:13.841Z,23.00
2019-06-20T04:23:41.528Z,23.00
2019-06-20T04:26:09.235Z,23.00
2019-06-20T04:28:36.875Z,23.00
2019-06-20T04:31:04.480Z,23.00
2019-06-20T04:33:32.032Z,23.00
2019-06-20T04:35:59.603Z,23.00
2019-06-20T04:38:27.200Z,23.00
2019-06-20T04:40:54.838Z,23.00
2019-06-20T04:43:22.463Z,23.00
2019-06-20T04:46:05.837Z,23.00
2019-06-20T04:48:33.432Z,22.90
2019-06-20T04:51:01.037Z,22.90
2019-06-20T04:53:28.685Z,22.90
2019-06-20T04:55:56.309Z,22.90
2019-06-20T04:58:23.951Z,22.90
2019-06-20T05:00:51.615Z,23.00
2019-06-20T05:03:19.183Z,23.00
2019-06-20T05:05:46.768Z,23.00
2019-06-20T05:08:14.393Z,23.00
2019-06-20T05:10:42.037Z,23.10
2019-06-20T05:13:09.649Z,23.10
2019-06-20T05:15:51.518Z,23.10
2019-06-20T05:18:06.678Z,23.20
2019-06-20T05:20:34.328Z,23.20
2019-06-20T05:23:01.921Z,23.20
2019-06-20T05:25:29.527Z,23.30
2019-06-20T05:27:57.146Z,23.30
2019-06-20T05:30:24.745Z,23.30
2019-06-20T05:32:52.530Z,23.30
2019-06-20T05:35:20.131Z,23.40
2019-06-20T05:37:47.757Z,23.40
2019-06-20T05:40:15.580Z,23.50
2019-06-20T05:42:43.205Z,23.50
2019-06-20T05:45:10.807Z,23.50
2019-06-20T05:47:38.451Z,23.60
2019-06-20T05:50:06.089Z,23.60
2019-06-20T05:52:33.719Z,23.60
2019-06-20T05:55:01.302Z,23.60
2019-06-20T05:57:28.917Z,23.70
2019-06-20T05:59:56.518Z,23.70
2019-06-20T06:02:24.164Z,23.70
2019-06-20T06:04:51.779Z,23.70
2019-06-20T06:07:19.412Z,23.80
2019-06-20T06:09:47.023Z,23.80
2019-06-20T06:12:14.659Z,23.80
2019-06-20T06:14:42.653Z,23.80
2019-06-20T06:17:10.497Z,23.90
2019-06-20T06:19:38.069Z,23.90
2019-06-20T06:22:05.689Z,23.90
2019-06-20T06:24:33.338Z,23.90
2019-06-20T06:27:00.980Z,23.90
2019-06-20T06:29:28.595Z,23.90
2019-06-20T06:31:56.201Z,23.90
2019-06-20T06:34:23.903Z,23.90
2019-06-20T06:36:51.480Z,24.00
2019-06-20T06:39:19.100Z,24.00
2019-06-20T06:41:46.750Z,24.00
2019-06-20T06:44:14.381Z,24.00
2019-06-20T06:46:47.203Z,24.10
2019-06-20T06:49:11.495Z,24.10
2019-06-20T06:51:39.135Z,24.10
2019-06-20T06:54:06.801Z,24.10
2019-06-20T06:56:34.416Z,24.10
2019-06-20T06:59:02.045Z,24.10
2019-06-20T07:01:29.943Z,24.10
2019-06-20T07:03:57.578Z,24.10
2019-06-20T07:06:25.235Z,24.10
2019-06-20T07:08:52.865Z,24.10
2019-06-20T07:11:20.483Z,24.10
2019-06-20T07:13:48.101Z,24.10
2019-06-20T07:16:15.724Z,24.20
2019-06-20T07:18:43.401Z,24.20
2019-06-20T07:21:10.997Z,24.20
2019-06-20T07:23:38.650Z,24.20
2019-06-20T07:26:06.300Z,24.30
2019-06-20T07:28:33.920Z,24.30
2019-06-20T07:31:01.517Z,24.30
2019-06-20T07:33:29.291Z,24.30
2019-06-20T07:35:56.956Z,24.40
2019-06-20T07:38:24.589Z,24.40
2019-06-20T07:40:52.258Z,24.40
2019-06-20T07:43:19.921Z,24.50
2019-06-20T07:46:01.466Z,24.50
2019-06-20T07:48:17.030Z,24.50
2019-06-20T07:50:44.798Z,24.50
2019-06-20T07:53:12.445Z,24.50
2019-06-20T07:55:40.102Z,24.50
2019-06-20T07:58:09.508Z,24.50
2019-06-20T08:00:37.162Z,24.60
2019-06-20T08:03:04.754Z,24.60
2019-06-20T08:05:32.426Z,24.60
2019-06-20T08:08:00.100Z,24.60
2019-06-20T08:10:27.912Z,24.70
2019-06-20T08:12:55.528Z,24.70
2019-06-20T08:15:23.389Z,24.70
2019-06-20T08:17:51.048Z,24.70
2019-06-20T08:20:18.749Z,24.80
2019-06-20T08:22:46.394Z,24.80
2019-06-20T08:25:14.482Z,24.90
2019-06-20T08:27:51.398Z,24.90
2019-06-20T08:30:27.854Z,24.90
2019-06-20T08:32:59.242Z,24.90
2019-06-20T08:35:26.952Z,24.90
2019-06-20T08:37:57.304Z,24.90
2019-06-20T08:40:25.845Z,25.00
2019-06-20T08:42:55.318Z,25.00
2019-06-20T08:45:24.997Z,25.00
2019-06-20T08:47:52.649Z,25.00
2019-06-20T08:50:20.430Z,25.00
2019-06-20T08:52:48.068Z,25.00
2019-06-20T08:55:15.901Z,25.00
2019-06-20T08:57:43.556Z,25.10
2019-06-20T09:00:11.717Z,25.10
2019-06-20T09:02:39.337Z,25.10
2019-06-20T09:05:07.231Z,25.10
2019-06-20T09:07:35.123Z,25.20
2019-06-20T09:10:04.288Z,25.20
2019-06-20T09:12:31.963Z,25.20
2019-06-20T09:14:59.617Z,25.20
2019-06-20T09:17:27.264Z,25.30
2019-06-20T09:19:55.859Z,25.40
2019-06-20T09:22:23.597Z,25.40
2019-06-20T09:24:52.019Z,25.40
2019-06-20T09:27:20.709Z,25.50
2019-06-20T09:29:48.334Z,25.50
2019-06-20T09:32:15.937Z,25.60
2019-06-20T09:34:43.677Z,25.60
2019-06-20T09:37:12.516Z,25.60
2019-06-20T09:39:40.136Z,25.60
2019-06-20T09:42:07.773Z,25.60
2019-06-20T09:44:35.395Z,25.60
2019-06-20T09:47:03.105Z,25.60
2019-06-20T09:49:30.727Z,25.60
2019-06-20T09:51:59.407Z,25.60
2019-06-20T09:54:27.047Z,25.50
2019-06-20T09:56:57.969Z,25.50
2019-06-20T09:59:27.825Z,25.50
2019-06-20T10:01:56.390Z,25.60
2019-06-20T10:04:24.068Z,25.60
2019-06-20T10:06:52.317Z,25.60
2019-06-20T10:09:20.055Z,25.70
2019-06-20T10:11:47.964Z,25.70
2019-06-20T10:14:15.898Z,25.70
2019-06-20T10:16:47.440Z,25.80
2019-06-20T10:19:13.521Z,25.80
2019-06-20T10:21:41.240Z,25.80
2019-06-20T10:24:08.845Z,25.90
2019-06-20T10:26:37.788Z,25.90
2019-06-20T10:29:05.485Z,25.90
2019-06-20T10:31:33.128Z,26.00
2019-06-20T10:34:00.760Z,26.00
2019-06-20T10:36:28.510Z,26.00
2019-06-20T10:38:56.936Z,26.10
2019-06-20T10:41:24.646Z,26.10
2019-06-20T10:43:52.381Z,26.10
2019-06-20T10:46:20.023Z,26.10
2019-06-20T10:48:47.978Z,26.10
2019-06-20T10:51:45.798Z,26.20
2019-06-20T10:54:13.641Z,26.30
2019-06-20T10:56:42.281Z,26.30
2019-06-20T10:59:10.986Z,26.30
2019-06-20T11:01:39.877Z,26.40
2019-06-20T11:04:08.075Z,26.40
2019-06-20T11:06:35.696Z,26.40
2019-06-20T11:09:07.303Z,26.50
2019-06-20T11:11:34.893Z,26.50
2019-06-20T11:14:02.596Z,26.60
2019-06-20T11:16:30.249Z,26.60
2019-06-20T11:18:57.895Z,26.70
2019-06-20T11:21:25.524Z,26.70
2019-06-20T11:23:53.148Z,26.70
2019-06-20T11:26:20.813Z,26.80
2019-06-20T11:28:50.099Z,26.80
2019-06-20T11:31:17.788Z,26.80
2019-06-20T11:33:45.425Z,26.80
2019-06-20T11:36:13.165Z,26.90
2019-06-20T11:38:40.823Z,26.90
2019-06-20T11:41:08.500Z,26.90
2019-06-20T11:43:36.325Z,26.80
2019-06-20T11:46:04.073Z,26.80
2019-06-20T11:48:31.720Z,26.80
2019-06-20T11:50:59.336Z,26.80
2019-06-20T11:53:28.155Z,26.80
2019-06-20T11:55:55.834Z,26.70
2019-06-20T11:58:23.623Z,26.70
2019-06-20T12:01:03.079Z,26.80
2019-06-20T12:03:20.842Z,26.80
2019-06-20T12:05:49.700Z,26.80
2019-06-20T12:08:17.582Z,26.90
2019-06-20T12:10:45.279Z,26.90
2019-06-20T12:13:13.114Z,26.90
2019-06-20T12:15:41.658Z,27.00
2019-06-20T12:18:10.453Z,27.00
2019-06-20T12:20:39.592Z,27.10
2019-06-20T12:23:07.600Z,27.10
2019-06-20T12:25:35.315Z,27.20
2019-06-20T12:28:03.093Z,27.20
2019-06-20T12:30:31.498Z,27.20
2019-06-20T12:32:59.648Z,27.30
2019-06-20T12:35:27.303Z,27.30
2019-06-20T12:37:54.969Z,27.40
2019-06-20T12:40:23.131Z,27.40
2019-06-20T12:42:50.774Z,27.50
2019-06-20T12:45:20.518Z,27.50
2019-06-20T12:47:48.147Z,27.60
2019-06-20T12:50:16.275Z,27.60
2019-06-20T12:52:45.448Z,27.70
2019-06-20T12:55:13.714Z,27.70
2019-06-20T12:57:42.436Z,27.80
2019-06-20T13:00:13.866Z,27.80
2019-06-20T13:02:42.504Z,27.90
2019-06-20T13:05:11.475Z,27.90
2019-06-20T13:07:40.494Z,28.00
2019-06-20T13:10:09.124Z,28.00
2019-06-20T13:12:40.651Z,28.00
2019-06-20T13:15:09.990Z,27.90
2019-06-20T13:17:39.253Z,28.00
2019-06-20T13:20:07.685Z,27.90
2019-06-20T13:22:35.325Z,27.90
2019-06-20T13:25:04.472Z,27.90
2019-06-20T13:27:32.120Z,27.90
2019-06-20T13:29:59.776Z,27.90
2019-06-20T13:32:27.404Z,27.90
2019-06-20T13:34:56.922Z,28.00
2019-06-20T13:37:25.563Z,28.00
2019-06-20T13:39:53.176Z,28.10
2019-06-20T13:42:20.821Z,28.10
2019-06-20T13:44:49.524Z,28.10
2019-06-20T13:47:17.138Z,28.10
2019-06-20T13:49:45.833Z,28.10
2019-06-20T13:52:13.704Z,28.10
2019-06-20T13:54:43.027Z,28.20
2019-06-20T13:57:10.796Z,28.10
2019-06-20T13:59:38.529Z,28.20
2019-06-20T14:02:07.116Z,28.20
2019-06-20T14:04:35.039Z,28.20
2019-06-20T14:07:02.675Z,28.20
2019-06-20T14:09:32.478Z,28.20
2019-06-20T14:12:01.894Z,28.20
2019-06-20T14:14:29.634Z,28.20
2019-06-20T14:16:57.299Z,28.20
2019-06-20T14:19:24.984Z,28.20
2019-06-20T14:21:52.658Z,28.20
2019-06-20T14:24:20.303Z,28.30
2019-06-20T14:26:48.197Z,28.30
2019-06-20T14:29:16.048Z,28.30
2019-06-20T14:31:44.368Z,28.30
2019-06-20T14:34:13.257Z,28.30
2019-06-20T14:36:40.978Z,28.30
2019-06-20T14:39:08.670Z,28.30
2019-06-20T14:41:36.301Z,28.30
2019-06-20T14:44:04.002Z,28.40
2019-06-20T14:46:31.634Z,28.40
2019-06-20T14:48:59.312Z,28.40
2019-06-20T14:51:26.962Z,28.40
2019-06-20T14:53:54.624Z,28.50
2019-06-20T14:56:22.240Z,28.50
2019-06-20T14:58:51.442Z,28.50
2019-06-20T15:01:19.318Z,28.50
2019-06-20T15:03:47.416Z,28.50
2019-06-20T15:06:16.486Z,28.50
2019-06-20T15:08:45.375Z,28.50
2019-06-20T15:11:13.486Z,28.50
2019-06-20T15:13:41.132Z,28.50
2019-06-20T15:16:08.866Z,28.50
2019-06-20T15:18:37.875Z,28.50
2019-06-20T15:21:05.582Z,28.40
2019-06-20T15:23:33.380Z,28.40
2019-06-20T15:26:00.996Z,28.40
2019-06-20T15:28:29.871Z,28.40
2019-06-20T15:30:57.545Z,28.40
2019-06-20T15:33:25.165Z,28.40
2019-06-20T15:35:53.522Z,28.40
2019-06-20T15:38:22.307Z,28.40
2019-06-20T15:40:51.425Z,28.40
2019-06-20T15:43:19.385Z,28.40
2019-06-20T15:45:48.357Z,28.50
2019-06-20T15:48:16.504Z,28.50
2019-06-20T15:50:44.155Z,28.50
2019-06-20T15:53:11.780Z,28.40
2019-06-20T15:55:58.890Z,28.40
2019-06-20T15:58:26.542Z,28.40
2019-06-20T16:00:54.186Z,28.40
2019-06-20T16:03:21.805Z,28.40
2019-06-20T16:05:49.458Z,28.40
2019-06-20T16:08:17.091Z,28.30
2019-06-20T16:10:44.752Z,28.30
2019-06-20T16:13:12.386Z,28.30
2019-06-20T16:15:40.142Z,28.30
2019-06-20T16:18:07.778Z,28.30
2019-06-20T16:20:35.425Z,28.30
2019-06-20T16:23:03.094Z,28.20
2019-06-20T16:25:30.843Z,28.20
2019-06-20T16:27:58.468Z,28.20
2019-06-20T16:30:26.334Z,28.20
2019-06-20T16:32:53.959Z,28.20
2019-06-20T16:35:21.595Z,28.30
2019-06-20T16:37:49.263Z,28.30
2019-06-20T16:40:23.977Z,28.30
2019-06-20T16:42:51.727Z,28.40
2019-06-20T16:45:19.388Z,28.40
2019-06-20T16:47:47.066Z,28.40
2019-06-20T16:50:15.688Z,28.40
2019-06-20T16:52:43.294Z,28.40
2019-06-20T16:55:11.391Z,28.40
2019-06-20T16:57:39.027Z,28.40
2019-06-20T17:00:07.382Z,28.30
2019-06-20T17:02:35.133Z,28.30
2019-06-20T17:05:02.793Z,28.30
2019-06-20T17:07:30.453Z,28.20
2019-06-20T17:09:58.084Z,28.20
2019-06-20T17:12:25.727Z,28.10
2019-06-20T17:14:53.437Z,28.10
2019-06-20T17:17:21.104Z,28.00
2019-06-20T17:19:48.716Z,28.00
2019-06-20T17:22:16.385Z,27.90
2019-06-20T17:24:43.983Z,27.80
2019-06-20T17:27:11.691Z,27.80
2019-06-20T17:29:39.293Z,27.70
2019-06-20T17:32:08.074Z,27.70
2019-06-20T17:34:35.699Z,27.70
2019-06-20T17:37:03.294Z,27.60
2019-06-20T17:39:30.972Z,27.60
2019-06-20T17:41:58.915Z,27.60
2019-06-20T17:44:27.541Z,27.60
2019-06-20T17:46:55.266Z,27.50
2019-06-20T17:49:23.035Z,27.50
2019-06-20T17:51:50.662Z,27.50
2019-06-20T17:54:18.454Z,27.40
2019-06-20T17:56:46.144Z,27.40
2019-06-20T17:59:13.783Z,27.30
2019-06-20T18:01:41.406Z,27.30
2019-06-20T18:04:13.586Z,27.30
2019-06-20T18:06:38.538Z,27.20
2019-06-20T18:09:06.389Z,27.20
2019-06-20T18:11:35.984Z,27.20
2019-06-20T18:14:03.680Z,27.20
2019-06-20T18:16:31.308Z,27.20
2019-06-20T18:18:58.990Z,27.10
2019-06-20T18:21:26.717Z,27.10
2019-06-20T18:23:54.399Z,27.10
2019-06-20T18:26:22.073Z,27.10
2019-06-20T18:28:49.782Z,27.10
2019-06-20T18:31:17.480Z,27.00
2019-06-20T18:33:45.125Z,27.00
2019-06-20T18:36:12.773Z,27.00
2019-06-20T18:38:40.435Z,27.00
2019-06-20T18:41:08.204Z,27.00
2019-06-20T18:43:35.833Z,26.90
2019-06-20T18:46:03.573Z,26.90
2019-06-20T18:48:31.243Z,26.90
2019-06-20T18:50:58.939Z,26.80
2019-06-20T18:53:26.631Z,26.70
2019-06-20T18:55:54.248Z,26.70
2019-06-20T18:58:21.922Z,26.60
2019-06-20T19:00:49.585Z,26.60
2019-06-20T19:03:17.543Z,26.60
2019-06-20T19:05:45.397Z,26.50
2019-06-20T19:08:13.028Z,26.50
2019-06-20T19:10:40.709Z,26.50
2019-06-20T19:13:08.424Z,26.50
2019-06-20T19:15:37.218Z,26.50
2019-06-20T19:18:04.960Z,26.50
2019-06-20T19:20:32.742Z,26.40
2019-06-20T19:23:00.501Z,26.40
2019-06-20T19:25:28.189Z,26.40
2019-06-20T19:27:55.845Z,26.40
2019-06-20T19:30:33.358Z,26.30
2019-06-20T19:33:02.145Z,26.30
2019-06-20T19:35:29.862Z,26.20
2019-06-20T19:37:57.505Z,26.30
2019-06-20T19:40:29.183Z,26.20
2019-06-20T19:42:57.522Z,26.20
2019-06-20T19:45:25.574Z,26.20
2019-06-20T19:47:53.240Z,26.10
2019-06-20T19:50:20.983Z,26.10
2019-06-20T19:52:48.644Z,26.10
2019-06-20T19:55:16.548Z,26.10
2019-06-20T19:57:44.247Z,26.10
2019-06-20T20:00:12.392Z,26.10
2019-06-20T20:02:40.147Z,26.00
2019-06-20T20:05:18.520Z,26.00
2019-06-20T20:07:37.993Z,26.00
2019-06-20T20:10:06.123Z,26.00
2019-06-20T20:12:33.758Z,26.00
2019-06-20T20:15:01.657Z,25.90
2019-06-20T20:17:30.651Z,25.90
2019-06-20T20:19:58.374Z,25.90
2019-06-20T20:22:26.036Z,25.90
2019-06-20T20:24:53.772Z,25.90
2019-06-20T20:27:21.482Z,25.80
2019-06-20T20:29:49.158Z,25.80
2019-06-20T20:32:16.789Z,25.70
2019-06-20T20:34:44.437Z,25.70
2019-06-20T20:37:12.090Z,25.70
2019-06-20T20:39:39.755Z,25.60
2019-06-20T20:42:07.381Z,25.60
2019-06-20T20:44:35.058Z,25.50
2019-06-20T20:47:02.705Z,25.50
2019-06-20T20:49:30.367Z,25.50
2019-06-20T20:51:57.992Z,25.40
2019-06-20T20:54:25.623Z,25.40
2019-06-20T20:56:53.278Z,25.40
2019-06-20T20:59:20.985Z,25.40
2019-06-20T21:01:48.714Z,25.30
2019-06-20T21:04:16.405Z,25.30
2019-06-20T21:06:44.043Z,25.20
2019-06-20T21:09:11.670Z,25.20
2019-06-20T21:11:39.444Z,25.20
2019-06-20T21:14:07.112Z,25.20
2019-06-20T21:16:34.780Z,25.10
2019-06-20T21:19:02.401Z,25.10
2019-06-20T21:21:30.046Z,25.10
2019-06-20T21:23:57.722Z,25.10
2019-06-20T21:26:25.364Z,25.10
2019-06-20T21:28:53.043Z,25.10
2019-06-20T21:31:20.738Z,25.00
2019-06-20T21:33:48.478Z,25.00
2019-06-20T21:36:16.062Z,25.00
2019-06-20T21:38:43.714Z,25.00
2019-06-20T21:41:11.369Z,25.00
2019-06-20T21:43:38.996Z,25.00
2019-06-20T21:46:07.016Z,25.00
2019-06-20T21:48:34.748Z,25.00
2019-06-20T21:51:02.380Z,25.00
2019-06-20T21:53:30.019Z,25.00
2019-06-20T21:55:57.635Z,25.00
2019-06-20T21:58:25.365Z,25.00
2019-06-20T22:00:56.417Z,25.00
2019-06-20T22:03:24.231Z,25.00
2019-06-20T22:05:52.875Z,25.00
2019-06-20T22:08:20.485Z,25.00
2019-06-20T22:10:48.261Z,25.00
2019-06-20T22:13:15.908Z,25.00
2019-06-20T22:15:43.545Z,25.00
2019-06-20T22:18:11.203Z,25.00
2019-06-20T22:20:38.850Z,25.00
2019-06-20T22:23:06.476Z,25.00
2019-06-20T22:25:34.163Z,25.00
2019-06-20T22:28:01.948Z,25.00
2019-06-20T22:30:40.576Z,25.00
2019-06-20T22:33:08.255Z,25.00
2019-06-20T22:35:35.870Z,24.90
2019-06-20T22:38:03.506Z,25.00
2019-06-20T22:40:31.112Z,24.90
2019-06-20T22:42:58.777Z,24.90
2019-06-20T22:45:26.529Z,24.90
2019-06-20T22:47:54.162Z,24.90
2019-06-20T22:50:21.819Z,24.90
2019-06-20T22:52:49.489Z,24.90
2019-06-20T22:55:17.121Z,24.90
2019-06-20T22:57:44.774Z,24.90
2019-06-20T23:00:12.912Z,24.90
2019-06-20T23:02:40.592Z,24.90
2019-06-20T23:05:08.810Z,24.90
2019-06-20T23:07:36.419Z,24.90
2019-06-20T23:10:10.573Z,24.90
2019-06-20T23:12:34.008Z,24.80
2019-06-20T23:15:01.675Z,24.80
2019-06-20T23:17:29.271Z,24.80
2019-06-20T23:19:56.865Z,24.80
2019-06-20T23:22:25.682Z,24.80
2019-06-20T23:24:53.294Z,24.70
2019-06-20T23:27:20.932Z,24.70
2019-06-20T23:29:48.577Z,24.70
2019-06-20T23:32:16.241Z,24.70
2019-06-20T23:34:43.944Z,24.70
2019-06-20T23:37:13.080Z,24.70
2019-06-20T23:39:42.156Z,24.70
2019-06-20T23:42:10.058Z,24.60
2019-06-20T23:44:37.668Z,24.60
2019-06-20T23:47:05.352Z,24.60
2019-06-20T23:49:33.053Z,24.60
2019-06-20T23:52:05.934Z,24.60
2019-06-20T23:54:33.542Z,24.60
2019-06-20T23:57:01.163Z,24.50
2019-06-20T23:59:28.775Z,24.50
